createdAt,value
2022-10-26T00:00:01.938Z,7.40
2022-10-26T00:01:59.031Z,7.40
2022-10-26T00:03:32.291Z,7.30
2022-10-26T00:05:06.569Z,7.30
2022-10-26T00:06:39.743Z,7.30
2022-10-26T00:08:12.395Z,7.30
2022-10-26T00:09:45.525Z,7.40
2022-10-26T00:11:20.527Z,7.40
2022-10-26T00:12:53.942Z,7.40
2022-10-26T00:14:28.463Z,7.40
2022-10-26T00:16:02.037Z,7.40
2022-10-26T00:17:35.699Z,7.40
2022-10-26T00:19:08.873Z,7.40
2022-10-26T00:20:42.383Z,7.40
2022-10-26T00:22:15.665Z,7.40
2022-10-26T00:23:49.028Z,7.50
2022-10-26T00:25:21.337Z,7.50
2022-10-26T00:26:54.519Z,7.40
2022-10-26T00:28:27.000Z,7.50
2022-10-26T00:30:00.283Z,7.50
2022-10-26T00:31:33.752Z,7.50
2022-10-26T00:33:12.606Z,7.50
2022-10-26T00:34:45.847Z,7.50
2022-10-26T00:36:19.405Z,7.50
2022-10-26T00:37:55.288Z,7.40
2022-10-26T00:39:28.624Z,7.50
2022-10-26T00:41:02.029Z,7.50
2022-10-26T00:42:35.323Z,7.50
2022-10-26T00:44:59.120Z,7.50
2022-10-26T00:46:36.797Z,7.50
2022-10-26T00:48:25.549Z,7.50
2022-10-26T00:50:16.219Z,7.50
2022-10-26T00:51:52.628Z,7.50
2022-10-26T00:53:26.314Z,7.50
2022-10-26T00:54:59.485Z,7.60
2022-10-26T00:56:35.395Z,7.60
2022-10-26T00:58:12.811Z,7.60
2022-10-26T00:59:47.371Z,7.60
2022-10-26T01:01:21.234Z,7.60
2022-10-26T01:02:58.948Z,7.60
2022-10-26T01:04:35.185Z,7.60
2022-10-26T01:06:11.137Z,7.60
2022-10-26T01:07:47.032Z,7.60
2022-10-26T01:09:21.992Z,7.60
2022-10-26T01:10:57.680Z,7.60
2022-10-26T01:12:31.183Z,7.60
2022-10-26T01:14:09.650Z,7.60
2022-10-26T01:15:57.706Z,7.60
2022-10-26T01:17:49.795Z,7.60
2022-10-26T01:20:06.966Z,7.70
2022-10-26T01:21:52.150Z,7.70
2022-10-26T01:23:40.001Z,7.70
2022-10-26T01:25:32.733Z,7.70
2022-10-26T01:27:29.321Z,7.70
2022-10-26T01:29:56.550Z,7.70
2022-10-26T01:31:41.686Z,7.70
2022-10-26T01:33:30.675Z,7.80
2022-10-26T01:35:10.280Z,7.70
2022-10-26T01:36:51.023Z,7.70
2022-10-26T01:38:33.540Z,7.70
2022-10-26T01:40:20.506Z,7.70
2022-10-26T01:42:01.242Z,7.70
2022-10-26T01:43:38.808Z,7.70
2022-10-26T01:45:15.841Z,7.80
2022-10-26T01:46:54.127Z,7.80
2022-10-26T01:48:30.872Z,7.80
2022-10-26T01:50:07.080Z,7.80
2022-10-26T01:51:45.198Z,7.80
2022-10-26T01:53:21.150Z,7.80
2022-10-26T01:55:02.697Z,7.80
2022-10-26T01:56:40.251Z,7.80
2022-10-26T01:58:36.942Z,7.80
2022-10-26T02:00:12.974Z,7.80
2022-10-26T02:02:26.704Z,7.90
2022-10-26T02:04:14.830Z,7.90
2022-10-26T02:06:13.495Z,7.90
2022-10-26T02:07:59.714Z,7.90
2022-10-26T02:09:47.150Z,7.90
2022-10-26T02:11:39.043Z,7.90
2022-10-26T02:13:21.565Z,7.90
2022-10-26T02:15:05.771Z,7.90
2022-10-26T02:16:49.633Z,7.90
2022-10-26T02:18:34.827Z,7.90
2022-10-26T02:20:16.871Z,8.00
2022-10-26T02:21:54.736Z,8.00
2022-10-26T02:23:31.277Z,8.00
2022-10-26T02:25:10.183Z,8.00
2022-10-26T02:26:49.098Z,8.00
2022-10-26T02:28:30.591Z,8.00
2022-10-26T02:30:07.102Z,8.10
2022-10-26T02:31:44.308Z,8.10
2022-10-26T02:33:20.458Z,8.10
2022-10-26T02:35:00.233Z,8.10
2022-10-26T02:36:39.903Z,8.10
2022-10-26T02:38:15.139Z,8.10
2022-10-26T02:39:53.499Z,8.20
2022-10-26T02:41:30.769Z,8.10
2022-10-26T02:43:08.547Z,8.20
2022-10-26T02:44:49.337Z,8.20
2022-10-26T02:46:24.932Z,8.20
2022-10-26T02:47:58.994Z,8.20
2022-10-26T02:49:31.543Z,8.30
2022-10-26T02:51:14.220Z,8.30
2022-10-26T02:52:59.073Z,8.30
2022-10-26T02:54:43.012Z,8.30
2022-10-26T02:56:25.375Z,8.30
2022-10-26T02:58:05.216Z,8.30
2022-10-26T02:59:43.878Z,8.30
2022-10-26T03:01:17.526Z,8.30
2022-10-26T03:02:57.876Z,8.30
2022-10-26T03:04:32.366Z,8.40
2022-10-26T03:06:07.493Z,8.40
2022-10-26T03:07:39.688Z,8.40
2022-10-26T03:09:12.884Z,8.50
2022-10-26T03:10:47.404Z,8.40
2022-10-26T03:12:20.981Z,8.40
2022-10-26T03:13:54.130Z,8.50
2022-10-26T03:15:27.765Z,8.50
2022-10-26T03:17:00.915Z,8.50
2022-10-26T03:18:34.097Z,8.50
2022-10-26T03:20:09.748Z,8.50
2022-10-26T03:21:44.262Z,8.50
2022-10-26T03:23:17.745Z,8.50
2022-10-26T03:24:50.949Z,8.60
2022-10-26T03:26:24.247Z,8.60
2022-10-26T03:27:59.134Z,8.60
2022-10-26T03:29:32.322Z,8.60
2022-10-26T03:31:06.017Z,8.60
2022-10-26T03:32:39.713Z,8.70
2022-10-26T03:34:13.894Z,8.60
2022-10-26T03:35:47.199Z,8.70
2022-10-26T03:37:21.889Z,8.60
2022-10-26T03:38:54.982Z,8.70
2022-10-26T03:40:28.414Z,8.70
2022-10-26T03:42:01.664Z,8.70
2022-10-26T03:43:34.930Z,8.70
2022-10-26T03:45:09.108Z,8.70
2022-10-26T03:46:42.362Z,8.80
2022-10-26T03:48:15.873Z,8.80
2022-10-26T03:49:49.163Z,8.80
2022-10-26T03:51:22.492Z,8.80
2022-10-26T03:52:57.390Z,8.80
2022-10-26T03:54:29.525Z,8.90
2022-10-26T03:56:02.694Z,8.80
2022-10-26T03:57:34.952Z,8.90
2022-10-26T03:59:08.094Z,8.90
2022-10-26T04:00:41.417Z,8.90
2022-10-26T04:02:15.372Z,8.90
2022-10-26T04:03:48.692Z,9.00
2022-10-26T04:05:23.922Z,9.10
2022-10-26T04:07:07.160Z,9.00
2022-10-26T04:08:41.817Z,9.00
2022-10-26T04:10:14.959Z,9.00
2022-10-26T04:11:48.350Z,9.10
2022-10-26T04:13:21.811Z,9.10
2022-10-26T04:15:07.794Z,9.10
2022-10-26T04:16:41.262Z,9.10
2022-10-26T04:18:14.689Z,9.10
2022-10-26T04:19:48.086Z,9.20
2022-10-26T04:21:21.202Z,9.20
2022-10-26T04:23:02.223Z,9.20
2022-10-26T04:24:35.717Z,9.20
2022-10-26T04:26:08.997Z,9.20
2022-10-26T04:27:41.498Z,9.30
2022-10-26T04:29:14.851Z,9.30
2022-10-26T04:30:49.864Z,9.30
2022-10-26T04:32:23.218Z,9.30
2022-10-26T04:33:56.564Z,9.30
2022-10-26T04:35:30.249Z,9.30
2022-10-26T04:37:03.317Z,9.30
2022-10-26T04:38:36.619Z,9.40
2022-10-26T04:40:12.212Z,9.40
2022-10-26T04:41:45.427Z,9.40
2022-10-26T04:43:18.605Z,9.40
2022-10-26T04:44:51.763Z,9.40
2022-10-26T04:46:24.946Z,9.40
2022-10-26T04:48:04.579Z,9.50
2022-10-26T04:49:37.762Z,9.50
2022-10-26T04:51:11.137Z,9.50
2022-10-26T04:52:44.302Z,9.50
2022-10-26T04:54:17.450Z,9.50
2022-10-26T04:55:57.999Z,9.50
2022-10-26T04:57:31.109Z,9.60
2022-10-26T04:59:04.684Z,9.60
2022-10-26T05:00:37.768Z,9.60
2022-10-26T05:02:11.114Z,9.60
2022-10-26T05:03:44.315Z,9.60
2022-10-26T05:05:17.690Z,9.60
2022-10-26T05:06:53.896Z,9.60
2022-10-26T05:08:29.912Z,9.60
2022-10-26T05:10:03.090Z,9.60
2022-10-26T05:11:37.678Z,9.60
2022-10-26T05:13:11.755Z,9.70
2022-10-26T05:14:45.204Z,9.60
2022-10-26T05:16:18.416Z,9.60
2022-10-26T05:17:57.368Z,9.70
2022-10-26T05:19:30.541Z,9.70
2022-10-26T05:21:06.454Z,9.70
2022-10-26T05:22:39.719Z,9.70
2022-10-26T05:24:13.169Z,9.70
2022-10-26T05:25:47.325Z,9.70
2022-10-26T05:27:21.742Z,9.70
2022-10-26T05:28:54.949Z,9.70
2022-10-26T05:30:29.556Z,9.70
2022-10-26T05:32:02.762Z,9.70
2022-10-26T05:33:36.144Z,9.70
2022-10-26T05:35:10.079Z,9.80
2022-10-26T05:36:43.274Z,9.70
2022-10-26T05:38:18.471Z,9.70
2022-10-26T05:39:51.633Z,9.80
2022-10-26T05:41:24.802Z,9.80
2022-10-26T05:43:02.936Z,9.80
2022-10-26T05:44:36.094Z,9.80
2022-10-26T05:46:09.328Z,9.80
2022-10-26T05:47:43.286Z,9.80
2022-10-26T05:49:16.694Z,9.80
2022-10-26T05:50:49.989Z,9.80
2022-10-26T05:52:23.286Z,9.80
2022-10-26T05:53:56.747Z,9.70
2022-10-26T05:55:31.305Z,9.80
2022-10-26T05:57:05.545Z,9.80
2022-10-26T05:58:41.257Z,9.80
2022-10-26T06:00:19.763Z,9.80
2022-10-26T06:02:07.736Z,9.80
2022-10-26T06:04:02.416Z,9.80
2022-10-26T06:05:45.037Z,9.80
2022-10-26T06:07:21.018Z,9.80
2022-10-26T06:08:54.921Z,9.80
2022-10-26T06:10:29.333Z,9.80
2022-10-26T06:12:03.745Z,9.80
2022-10-26T06:13:38.094Z,9.80
2022-10-26T06:15:17.169Z,9.90
2022-10-26T06:17:12.779Z,9.80
2022-10-26T06:19:13.914Z,9.90
2022-10-26T06:21:04.519Z,9.90
2022-10-26T06:22:59.283Z,9.90
2022-10-26T06:24:42.742Z,9.90
2022-10-26T06:26:35.468Z,9.90
2022-10-26T06:28:26.933Z,9.90
2022-10-26T06:30:06.972Z,9.90
2022-10-26T06:31:49.652Z,9.90
2022-10-26T06:33:30.741Z,9.90
2022-10-26T06:35:22.586Z,9.90
2022-10-26T06:36:59.317Z,9.90
2022-10-26T06:38:36.186Z,10.00
2022-10-26T06:40:12.619Z,10.00
2022-10-26T06:41:47.041Z,10.00
2022-10-26T06:43:26.760Z,10.00
2022-10-26T06:45:00.833Z,10.00
2022-10-26T06:46:44.597Z,10.00
2022-10-26T06:48:26.546Z,10.00
2022-10-26T06:50:12.770Z,10.00
2022-10-26T06:51:56.638Z,10.00
2022-10-26T06:55:17.601Z,10.10
2022-10-26T06:56:53.460Z,10.10
2022-10-26T06:58:31.989Z,10.10
2022-10-26T07:00:20.619Z,10.10
2022-10-26T07:01:55.290Z,10.10
2022-10-26T07:03:28.512Z,10.10
2022-10-26T07:05:01.951Z,10.10
2022-10-26T07:06:36.919Z,10.20
2022-10-26T07:08:12.757Z,10.20
2022-10-26T07:09:46.076Z,10.20
2022-10-26T07:11:19.339Z,10.20
2022-10-26T07:12:52.581Z,10.20
2022-10-26T07:14:25.719Z,10.20
2022-10-26T07:15:58.969Z,10.20
2022-10-26T07:17:42.922Z,10.20
2022-10-26T07:19:16.201Z,10.20
2022-10-26T07:20:49.363Z,10.30
2022-10-26T07:22:25.277Z,10.30
2022-10-26T07:23:58.475Z,10.30
2022-10-26T07:25:32.079Z,10.30
2022-10-26T07:27:05.558Z,10.30
2022-10-26T07:28:38.688Z,10.30
2022-10-26T07:30:12.840Z,10.30
2022-10-26T07:31:46.215Z,10.40
2022-10-26T07:33:21.100Z,10.40
2022-10-26T07:34:54.357Z,10.40
2022-10-26T07:36:27.454Z,10.40
2022-10-26T07:38:00.946Z,10.50
2022-10-26T07:39:34.169Z,10.50
2022-10-26T07:41:07.729Z,10.50
2022-10-26T07:42:43.041Z,10.50
2022-10-26T07:44:19.209Z,10.50
2022-10-26T07:45:52.541Z,10.50
2022-10-26T07:47:25.757Z,10.60
2022-10-26T07:49:00.403Z,10.60
2022-10-26T07:50:33.556Z,10.70
2022-10-26T07:52:06.996Z,10.70
2022-10-26T07:53:40.238Z,10.70
2022-10-26T07:55:14.314Z,10.80
2022-10-26T07:56:50.339Z,10.80
2022-10-26T07:58:26.044Z,10.80
2022-10-26T07:59:59.352Z,10.80
2022-10-26T08:01:32.777Z,10.90
2022-10-26T08:03:06.192Z,10.90
2022-10-26T08:04:40.825Z,10.90
2022-10-26T08:06:15.089Z,10.90
2022-10-26T08:07:48.819Z,11.00
2022-10-26T08:09:22.421Z,11.00
2022-10-26T08:10:55.577Z,11.10
2022-10-26T08:12:28.926Z,11.10
2022-10-26T08:14:02.023Z,11.10
2022-10-26T08:15:35.190Z,11.20
2022-10-26T08:17:08.458Z,11.20
2022-10-26T08:18:41.901Z,11.30
2022-10-26T08:20:16.520Z,11.30
2022-10-26T08:21:49.840Z,11.40
2022-10-26T08:23:23.260Z,11.40
2022-10-26T08:24:56.443Z,11.40
2022-10-26T08:26:30.602Z,11.50
2022-10-26T08:28:04.980Z,11.50
2022-10-26T08:29:38.327Z,11.60
2022-10-26T08:31:11.636Z,11.60
2022-10-26T08:32:45.342Z,11.70
2022-10-26T08:34:18.585Z,11.70
2022-10-26T08:35:57.295Z,11.80
2022-10-26T08:37:30.502Z,11.80
2022-10-26T08:39:03.865Z,11.90
2022-10-26T08:40:40.947Z,11.90
2022-10-26T08:42:20.259Z,12.10
2022-10-26T08:43:59.979Z,12.10
2022-10-26T08:45:39.074Z,12.20
2022-10-26T08:47:19.369Z,12.30
2022-10-26T08:48:57.327Z,12.40
2022-10-26T08:50:40.483Z,12.50
2022-10-26T08:52:23.054Z,12.50
2022-10-26T08:54:02.775Z,12.60
2022-10-26T08:55:44.955Z,12.70
2022-10-26T08:57:26.259Z,12.70
2022-10-26T08:59:06.674Z,12.80
2022-10-26T09:00:41.671Z,12.90
2022-10-26T09:02:17.767Z,12.90
2022-10-26T09:03:51.115Z,13.00
2022-10-26T09:05:37.251Z,13.10
2022-10-26T09:07:26.778Z,13.10
2022-10-26T09:09:09.239Z,13.20
2022-10-26T09:10:54.749Z,13.30
2022-10-26T09:12:44.658Z,13.30
2022-10-26T09:14:24.138Z,13.50
2022-10-26T09:16:06.528Z,13.60
2022-10-26T09:17:55.648Z,13.70
2022-10-26T09:20:04.871Z,13.70
2022-10-26T09:21:50.013Z,13.90
2022-10-26T09:23:45.446Z,14.00
2022-10-26T09:25:21.250Z,14.10
2022-10-26T09:26:56.918Z,14.20
2022-10-26T09:28:37.124Z,14.20
2022-10-26T09:30:18.368Z,14.40
2022-10-26T09:31:52.013Z,14.50
2022-10-26T09:33:27.480Z,14.60
2022-10-26T09:35:05.262Z,14.60
2022-10-26T09:36:56.257Z,14.80
2022-10-26T09:38:33.077Z,14.80
2022-10-26T09:40:14.340Z,14.90
2022-10-26T09:41:54.685Z,15.00
2022-10-26T09:43:35.934Z,15.10
2022-10-26T09:45:21.205Z,15.20
2022-10-26T09:47:02.438Z,15.40
2022-10-26T09:48:42.341Z,15.50
2022-10-26T09:50:26.243Z,15.50
2022-10-26T09:52:00.934Z,15.60
2022-10-26T09:53:34.511Z,15.70
2022-10-26T09:55:11.877Z,15.80
2022-10-26T09:56:48.696Z,15.90
2022-10-26T09:58:28.922Z,15.90
2022-10-26T10:00:02.478Z,16.00
2022-10-26T10:01:50.916Z,16.10
2022-10-26T10:03:28.550Z,16.10
2022-10-26T10:05:02.093Z,16.20
2022-10-26T10:06:35.246Z,16.20
2022-10-26T10:08:21.308Z,16.20
2022-10-26T10:10:10.141Z,16.30
2022-10-26T10:11:54.658Z,16.40
2022-10-26T10:13:31.486Z,16.40
2022-10-26T10:15:05.435Z,16.50
2022-10-26T10:16:39.142Z,16.60
2022-10-26T10:18:21.896Z,16.60
2022-10-26T10:19:55.225Z,16.70
2022-10-26T10:21:37.579Z,16.80
2022-10-26T10:23:29.812Z,16.90
2022-10-26T10:25:06.732Z,17.00
2022-10-26T10:26:59.945Z,17.00
2022-10-26T10:28:34.793Z,17.10
2022-10-26T10:30:23.583Z,17.20
2022-10-26T10:31:58.603Z,17.30
2022-10-26T10:33:40.288Z,17.40
2022-10-26T10:35:26.602Z,17.40
2022-10-26T10:37:01.252Z,17.50
2022-10-26T10:38:41.385Z,17.50
2022-10-26T10:40:22.081Z,17.70
2022-10-26T10:41:55.442Z,17.70
2022-10-26T10:43:28.961Z,17.80
2022-10-26T10:45:04.192Z,17.90
2022-10-26T10:46:38.691Z,17.90
2022-10-26T10:48:18.991Z,17.90
2022-10-26T10:49:57.082Z,18.00
2022-10-26T10:51:39.051Z,18.10
2022-10-26T10:53:19.375Z,18.20
2022-10-26T10:55:09.051Z,18.20
2022-10-26T10:56:49.871Z,18.30
2022-10-26T10:58:34.024Z,18.30
2022-10-26T11:00:11.060Z,18.40
2022-10-26T11:01:51.666Z,18.40
2022-10-26T11:04:00.185Z,18.50
2022-10-26T11:05:51.510Z,18.60
2022-10-26T11:07:28.841Z,18.60
2022-10-26T11:09:08.360Z,18.70
2022-10-26T11:10:48.446Z,18.70
2022-10-26T11:12:29.915Z,18.70
2022-10-26T11:14:11.699Z,18.80
2022-10-26T11:15:47.506Z,18.90
2022-10-26T11:17:26.364Z,18.90
2022-10-26T11:19:07.377Z,19.00
2022-10-26T11:20:50.617Z,19.00
2022-10-26T11:22:29.995Z,19.00
2022-10-26T11:24:16.620Z,19.10
2022-10-26T11:25:59.005Z,19.10
2022-10-26T11:27:42.492Z,19.10
2022-10-26T11:29:27.360Z,19.10
2022-10-26T11:31:08.533Z,19.10
2022-10-26T11:32:48.211Z,19.20
2022-10-26T11:34:32.750Z,19.10
2022-10-26T11:36:16.049Z,19.10
2022-10-26T11:38:02.769Z,19.20
2022-10-26T11:39:45.791Z,19.20
2022-10-26T11:41:26.236Z,19.20
2022-10-26T11:43:07.696Z,19.20
2022-10-26T11:44:52.751Z,19.20
2022-10-26T11:46:34.927Z,19.20
2022-10-26T11:48:17.712Z,19.20
2022-10-26T11:50:01.721Z,19.20
2022-10-26T11:51:44.150Z,19.20
2022-10-26T11:53:22.192Z,19.20
2022-10-26T11:55:00.521Z,19.20
2022-10-26T11:56:41.367Z,19.20
2022-10-26T11:58:15.092Z,19.20
2022-10-26T11:59:53.001Z,19.20
2022-10-26T12:01:29.739Z,19.20
2022-10-26T12:03:10.422Z,19.20
2022-10-26T12:04:47.104Z,19.20
2022-10-26T12:06:25.885Z,19.10
2022-10-26T12:08:07.394Z,19.20
2022-10-26T12:09:45.107Z,19.10
2022-10-26T12:11:35.978Z,19.10
2022-10-26T12:13:23.482Z,19.10
2022-10-26T12:15:11.910Z,19.10
2022-10-26T12:16:58.274Z,19.20
2022-10-26T12:18:54.567Z,19.20
2022-10-26T12:20:56.538Z,19.20
2022-10-26T12:22:35.433Z,19.20
2022-10-26T12:24:30.607Z,19.20
2022-10-26T12:26:41.277Z,19.20
2022-10-26T12:28:42.847Z,19.20
2022-10-26T12:30:30.492Z,19.20
2022-10-26T12:32:04.662Z,19.20
2022-10-26T12:33:51.744Z,19.20
2022-10-26T12:35:46.263Z,19.20
2022-10-26T12:37:36.682Z,19.30
2022-10-26T12:39:32.676Z,19.30
2022-10-26T12:41:19.587Z,19.20
2022-10-26T12:42:52.817Z,19.20
2022-10-26T12:44:37.772Z,19.30
2022-10-26T12:46:41.172Z,19.20
2022-10-26T12:48:38.939Z,19.20
2022-10-26T12:50:25.930Z,19.20
2022-10-26T12:51:58.060Z,19.30
2022-10-26T12:53:31.461Z,19.30
2022-10-26T12:55:57.721Z,19.30
2022-10-26T12:57:38.595Z,19.30
2022-10-26T12:59:28.916Z,19.30
2022-10-26T13:03:35.914Z,19.20
2022-10-26T13:05:50.935Z,19.30
2022-10-26T13:07:26.244Z,19.20
2022-10-26T13:09:03.024Z,19.20
2022-10-26T13:10:44.255Z,19.30
2022-10-26T13:12:17.630Z,19.30
2022-10-26T13:13:56.420Z,19.20
2022-10-26T13:15:34.369Z,19.30
2022-10-26T13:17:24.460Z,19.20
2022-10-26T13:18:58.985Z,19.20
2022-10-26T13:20:34.850Z,19.30
2022-10-26T13:22:15.745Z,19.20
2022-10-26T13:24:01.417Z,19.30
2022-10-26T13:25:34.677Z,19.30
2022-10-26T13:27:57.817Z,19.20
2022-10-26T13:29:31.989Z,19.20
2022-10-26T13:31:05.992Z,19.20
2022-10-26T13:32:43.967Z,19.20
2022-10-26T13:34:21.153Z,19.20
2022-10-26T13:35:59.520Z,19.20
2022-10-26T13:37:35.634Z,19.20
2022-10-26T13:39:18.246Z,19.20
2022-10-26T13:40:59.956Z,19.20
2022-10-26T13:42:45.693Z,19.20
2022-10-26T13:44:28.530Z,19.20
2022-10-26T13:46:04.723Z,19.20
2022-10-26T13:47:46.581Z,19.20
2022-10-26T13:49:28.679Z,19.30
2022-10-26T13:51:07.305Z,19.30
2022-10-26T13:52:45.569Z,19.20
2022-10-26T13:54:27.043Z,19.20
2022-10-26T13:56:07.574Z,19.20
2022-10-26T13:57:46.099Z,19.20
2022-10-26T14:01:15.585Z,19.20
2022-10-26T14:02:49.711Z,19.20
2022-10-26T14:04:28.942Z,19.20
2022-10-26T14:06:05.812Z,19.20
2022-10-26T14:07:45.826Z,19.20
2022-10-26T14:09:21.463Z,19.20
2022-10-26T14:10:59.039Z,19.20
2022-10-26T14:12:33.786Z,19.20
2022-10-26T14:14:15.881Z,19.20
2022-10-26T14:15:49.287Z,19.20
2022-10-26T14:17:26.825Z,19.20
2022-10-26T14:19:00.464Z,19.20
2022-10-26T14:20:34.022Z,19.20
2022-10-26T14:22:08.041Z,19.20
2022-10-26T14:23:49.853Z,19.20
2022-10-26T14:25:36.167Z,19.20
2022-10-26T14:27:17.403Z,19.20
2022-10-26T14:28:54.452Z,19.20
2022-10-26T14:30:32.868Z,19.20
2022-10-26T14:32:22.574Z,19.20
2022-10-26T14:33:58.618Z,19.20
2022-10-26T14:35:36.521Z,19.20
2022-10-26T14:37:35.255Z,19.20
2022-10-26T14:39:21.205Z,19.20
2022-10-26T14:40:58.498Z,19.20
2022-10-26T14:42:35.578Z,19.20
2022-10-26T14:44:20.326Z,19.10
2022-10-26T14:45:57.239Z,19.10
2022-10-26T14:47:34.009Z,19.10
2022-10-26T14:49:07.100Z,19.10
2022-10-26T14:50:42.963Z,19.10
2022-10-26T14:52:27.610Z,19.10
2022-10-26T14:54:05.778Z,19.10
2022-10-26T14:55:50.042Z,19.10
2022-10-26T14:57:37.512Z,19.10
2022-10-26T14:59:25.745Z,19.10
2022-10-26T15:01:36.234Z,19.00
2022-10-26T15:03:17.790Z,19.00
2022-10-26T15:05:01.347Z,19.00
2022-10-26T15:06:44.414Z,19.00
2022-10-26T15:08:56.081Z,18.90
2022-10-26T15:10:48.747Z,18.90
2022-10-26T15:12:26.967Z,18.90
2022-10-26T15:14:02.261Z,18.90
2022-10-26T15:15:38.976Z,18.80
2022-10-26T15:17:24.285Z,18.70
2022-10-26T15:19:07.255Z,18.70
2022-10-26T15:20:51.180Z,18.70
2022-10-26T15:22:32.075Z,18.60
2022-10-26T15:24:28.139Z,18.60
2022-10-26T15:26:04.042Z,18.50
2022-10-26T15:27:37.468Z,18.50
2022-10-26T15:29:39.826Z,18.40
2022-10-26T15:31:32.883Z,18.40
2022-10-26T15:33:22.296Z,18.20
2022-10-26T15:35:29.304Z,18.20
2022-10-26T15:37:09.698Z,18.20
2022-10-26T15:38:43.728Z,18.10
2022-10-26T15:40:18.490Z,18.10
2022-10-26T15:41:53.446Z,18.10
2022-10-26T15:43:26.633Z,18.00
2022-10-26T15:45:00.780Z,17.90
2022-10-26T15:46:36.555Z,17.90
2022-10-26T15:48:25.504Z,17.80
2022-10-26T15:49:58.856Z,17.70
2022-10-26T15:51:32.596Z,17.70
2022-10-26T15:53:17.465Z,17.60
2022-10-26T15:54:50.663Z,17.60
2022-10-26T15:56:26.432Z,17.50
2022-10-26T15:57:59.706Z,17.40
2022-10-26T15:59:33.179Z,17.40
2022-10-26T16:01:06.905Z,17.30
2022-10-26T16:02:43.698Z,17.30
2022-10-26T16:04:18.298Z,17.20
2022-10-26T16:05:58.223Z,17.10
2022-10-26T16:07:31.518Z,17.00
2022-10-26T16:09:08.310Z,17.00
2022-10-26T16:10:41.514Z,17.00
2022-10-26T16:12:15.247Z,16.90
2022-10-26T16:15:25.511Z,16.80
2022-10-26T16:16:58.669Z,16.70
2022-10-26T16:18:31.828Z,16.70
2022-10-26T16:20:09.223Z,16.60
2022-10-26T16:21:42.715Z,16.50
2022-10-26T16:23:17.581Z,16.50
2022-10-26T16:24:50.936Z,16.40
2022-10-26T16:26:24.830Z,16.40
2022-10-26T16:27:58.111Z,16.30
2022-10-26T16:29:31.907Z,16.30
2022-10-26T16:31:07.911Z,16.20
2022-10-26T16:32:41.824Z,16.20
2022-10-26T16:34:15.463Z,16.10
2022-10-26T16:35:57.909Z,16.10
2022-10-26T16:37:32.013Z,16.00
2022-10-26T16:39:05.535Z,16.00
2022-10-26T16:40:38.750Z,15.90
2022-10-26T16:42:12.027Z,15.90
2022-10-26T16:43:46.821Z,15.80
2022-10-26T16:45:21.003Z,15.80
2022-10-26T16:46:54.277Z,15.70
2022-10-26T16:48:27.783Z,15.70
2022-10-26T16:50:00.937Z,15.60
2022-10-26T16:51:35.662Z,15.50
2022-10-26T16:53:08.684Z,15.50
2022-10-26T16:54:42.001Z,15.50
2022-10-26T16:56:18.246Z,15.40
2022-10-26T16:57:51.803Z,15.40
2022-10-26T16:59:25.096Z,15.30
2022-10-26T17:00:58.603Z,15.30
2022-10-26T17:02:32.188Z,15.20
2022-10-26T17:04:06.287Z,15.20
2022-10-26T17:05:39.678Z,15.10
2022-10-26T17:07:14.335Z,15.10
2022-10-26T17:08:48.318Z,15.00
2022-10-26T17:10:21.686Z,15.00
2022-10-26T17:11:58.287Z,15.00
2022-10-26T17:13:35.534Z,14.90
2022-10-26T17:15:10.012Z,14.90
2022-10-26T17:16:43.385Z,14.80
2022-10-26T17:18:17.434Z,14.80
2022-10-26T17:19:50.755Z,14.70
2022-10-26T17:21:31.653Z,14.70
2022-10-26T17:23:07.032Z,14.60
2022-10-26T17:24:40.243Z,14.60
2022-10-26T17:26:15.653Z,14.50
2022-10-26T17:27:48.978Z,14.50
2022-10-26T17:29:22.178Z,14.40
2022-10-26T17:31:04.311Z,14.40
2022-10-26T17:32:37.603Z,14.40
2022-10-26T17:34:10.836Z,14.30
2022-10-26T17:35:44.077Z,14.20
2022-10-26T17:37:16.285Z,14.20
2022-10-26T17:38:53.434Z,14.20
2022-10-26T17:40:26.873Z,14.10
2022-10-26T17:42:00.086Z,14.10
2022-10-26T17:43:35.653Z,13.90
2022-10-26T17:45:10.706Z,14.00
2022-10-26T17:46:43.970Z,13.90
2022-10-26T17:48:17.137Z,13.90
2022-10-26T17:49:51.153Z,13.90
2022-10-26T17:51:25.962Z,13.80
2022-10-26T17:52:59.315Z,13.70
2022-10-26T17:54:33.859Z,13.70
2022-10-26T17:56:09.919Z,13.60
2022-10-26T17:57:43.116Z,13.60
2022-10-26T17:59:17.478Z,13.50
2022-10-26T18:00:50.744Z,13.50
2022-10-26T18:02:24.008Z,13.50
2022-10-26T18:03:57.432Z,13.40
2022-10-26T18:05:32.165Z,13.40
2022-10-26T18:07:05.484Z,13.40
2022-10-26T18:08:40.685Z,13.30
2022-10-26T18:12:10.645Z,13.20
2022-10-26T18:13:43.849Z,13.20
2022-10-26T18:15:17.544Z,13.10
2022-10-26T18:16:50.870Z,13.10
2022-10-26T18:18:24.084Z,13.10
2022-10-26T18:21:37.360Z,13.00
2022-10-26T18:23:11.900Z,12.90
2022-10-26T18:24:45.183Z,12.90
2022-10-26T18:26:22.784Z,12.90
2022-10-26T18:27:56.547Z,12.90
2022-10-26T18:29:29.940Z,12.80
2022-10-26T18:31:06.884Z,12.80
2022-10-26T18:32:40.594Z,12.70
2022-10-26T18:34:14.533Z,12.70
2022-10-26T18:35:47.900Z,12.70
2022-10-26T18:37:21.461Z,12.60
2022-10-26T18:38:55.070Z,12.60
2022-10-26T18:40:28.302Z,12.60
2022-10-26T18:42:03.026Z,12.60
2022-10-26T18:43:40.666Z,12.50
2022-10-26T18:45:13.995Z,12.50
2022-10-26T18:46:51.793Z,12.50
2022-10-26T18:48:25.084Z,12.50
2022-10-26T18:50:01.404Z,12.50
2022-10-26T18:51:35.964Z,12.40
2022-10-26T18:53:12.658Z,12.40
2022-10-26T18:54:48.506Z,12.40
2022-10-26T18:56:24.034Z,12.30
2022-10-26T18:57:59.442Z,12.30
2022-10-26T18:59:32.713Z,12.30
2022-10-26T19:01:10.134Z,12.30
2022-10-26T19:02:53.821Z,12.30
2022-10-26T19:04:27.998Z,12.20
2022-10-26T19:06:09.930Z,12.20
2022-10-26T19:07:45.314Z,12.20
2022-10-26T19:09:19.910Z,12.20
2022-10-26T19:10:53.038Z,12.10
2022-10-26T19:12:26.204Z,12.10
2022-10-26T19:14:01.908Z,12.00
2022-10-26T19:15:35.161Z,12.00
2022-10-26T19:17:08.883Z,12.00
2022-10-26T19:18:42.802Z,12.00
2022-10-26T19:20:16.912Z,11.90
2022-10-26T19:21:51.273Z,11.90
2022-10-26T19:23:25.556Z,11.90
2022-10-26T19:24:58.769Z,11.90
2022-10-26T19:26:36.757Z,11.80
2022-10-26T19:28:10.985Z,11.80
2022-10-26T19:29:45.635Z,11.80
2022-10-26T19:31:20.025Z,11.80
2022-10-26T19:32:55.801Z,11.70
2022-10-26T19:34:29.063Z,11.70
2022-10-26T19:36:04.907Z,11.70
2022-10-26T19:37:38.926Z,11.60
2022-10-26T19:39:12.484Z,11.60
2022-10-26T19:40:46.888Z,11.60
2022-10-26T19:42:20.902Z,11.60
2022-10-26T19:43:55.504Z,11.50
2022-10-26T19:45:30.265Z,11.50
2022-10-26T19:47:04.961Z,11.50
2022-10-26T19:48:38.762Z,11.50
2022-10-26T19:50:12.585Z,11.50
2022-10-26T19:51:47.768Z,11.40
2022-10-26T19:53:22.276Z,11.40
2022-10-26T19:54:55.580Z,11.40
2022-10-26T19:56:29.037Z,11.40
2022-10-26T19:58:03.528Z,11.30
2022-10-26T19:59:36.843Z,11.30
2022-10-26T20:01:14.780Z,11.30
2022-10-26T20:02:49.504Z,11.30
2022-10-26T20:04:23.460Z,11.20
2022-10-26T20:06:12.744Z,11.20
2022-10-26T20:07:46.044Z,11.20
2022-10-26T20:09:19.273Z,11.20
2022-10-26T20:10:57.265Z,11.10
2022-10-26T20:12:30.571Z,11.10
2022-10-26T20:14:06.262Z,11.10
2022-10-26T20:15:39.711Z,11.10
2022-10-26T20:17:15.431Z,11.10
2022-10-26T20:18:49.216Z,11.10
2022-10-26T20:20:34.929Z,11.10
2022-10-26T20:22:08.261Z,11.00
2022-10-26T20:23:42.856Z,11.00
2022-10-26T20:25:16.213Z,11.00
2022-10-26T20:26:49.422Z,11.00
2022-10-26T20:28:22.655Z,10.90
2022-10-26T20:29:56.648Z,10.90
2022-10-26T20:31:30.350Z,10.90
2022-10-26T20:33:05.725Z,10.90
2022-10-26T20:34:41.359Z,10.80
2022-10-26T20:36:17.533Z,10.90
2022-10-26T20:37:51.838Z,10.80
2022-10-26T20:39:26.119Z,10.70
2022-10-26T20:41:02.656Z,10.70
2022-10-26T20:42:39.331Z,10.70
2022-10-26T20:44:21.596Z,10.70
2022-10-26T20:45:57.684Z,10.60
2022-10-26T20:47:31.684Z,10.60
2022-10-26T20:49:07.480Z,10.60
2022-10-26T20:50:46.619Z,10.60
2022-10-26T20:52:26.788Z,10.50
2022-10-26T20:54:12.763Z,10.50
2022-10-26T20:55:54.610Z,10.50
2022-10-26T20:57:36.122Z,10.50
2022-10-26T20:59:21.427Z,10.40
2022-10-26T21:01:02.042Z,10.40
2022-10-26T21:02:35.482Z,10.40
2022-10-26T21:04:10.358Z,10.40
2022-10-26T21:05:48.129Z,10.40
2022-10-26T21:07:22.564Z,10.40
2022-10-26T21:08:57.593Z,10.30
2022-10-26T21:10:33.298Z,10.30
2022-10-26T21:12:08.045Z,10.30
2022-10-26T21:13:43.834Z,10.30
2022-10-26T21:15:18.047Z,10.30
2022-10-26T21:16:51.703Z,10.20
2022-10-26T21:18:25.070Z,10.20
2022-10-26T21:19:59.780Z,10.20
2022-10-26T21:21:32.946Z,10.20
2022-10-26T21:23:06.245Z,10.20
2022-10-26T21:24:39.571Z,10.20
2022-10-26T21:26:13.571Z,10.10
2022-10-26T21:27:46.814Z,10.10
2022-10-26T21:29:20.448Z,10.10